createdAt,value
2019-01-25T00:00:40.794Z,37.48
2019-01-25T00:03:10.207Z,38.10
2019-01-25T00:05:39.328Z,38.50
2019-01-25T00:08:08.200Z,35.57
2019-01-25T00:10:37.015Z,37.05
2019-01-25T00:13:05.940Z,38.48
2019-01-25T00:15:34.713Z,38.00
2019-01-25T00:18:03.998Z,39.73
2019-01-25T00:20:32.762Z,38.53
2019-01-25T00:23:01.798Z,39.27
2019-01-25T00:25:30.857Z,39.53
2019-01-25T00:27:59.701Z,38.58
2019-01-25T00:30:28.458Z,38.28
2019-01-25T00:32:57.245Z,38.85
2019-01-25T00:35:26.080Z,37.95
2019-01-25T00:37:55.109Z,35.88
2019-01-25T00:40:24.396Z,38.55
2019-01-25T00:42:53.168Z,39.03
2019-01-25T00:45:22.074Z,37.03
2019-01-25T00:47:50.859Z,38.60
2019-01-25T00:50:19.988Z,35.40
2019-01-25T00:52:49.250Z,38.65
2019-01-25T00:55:18.090Z,38.28
2019-01-25T00:57:46.997Z,36.65
2019-01-25T01:00:23.363Z,37.45
2019-01-25T01:02:52.269Z,37.20
2019-01-25T01:05:21.581Z,36.63
2019-01-25T01:07:51.844Z,36.23
2019-01-25T01:10:22.035Z,40.48
2019-01-25T01:12:51.623Z,38.00
2019-01-25T01:15:20.933Z,37.83
2019-01-25T01:17:50.142Z,37.13
2019-01-25T01:20:20.112Z,38.55
2019-01-25T01:22:49.620Z,37.08
2019-01-25T01:25:19.475Z,39.90
2019-01-25T01:27:48.465Z,38.80
2019-01-25T01:30:22.206Z,39.05
2019-01-25T01:32:51.294Z,39.78
2019-01-25T01:35:20.136Z,38.50
2019-01-25T01:37:49.162Z,36.42
2019-01-25T01:40:23.048Z,38.50
2019-01-25T01:42:52.324Z,39.48
2019-01-25T01:45:21.225Z,39.93
2019-01-25T01:47:50.380Z,39.30
2019-01-25T01:50:19.371Z,38.33
2019-01-25T01:52:49.048Z,39.95
2019-01-25T01:55:17.887Z,39.45
2019-01-25T01:57:46.899Z,37.20
2019-01-25T02:00:23.652Z,39.58
2019-01-25T02:02:52.607Z,40.88
2019-01-25T02:05:21.439Z,40.80
2019-01-25T02:07:50.356Z,39.42
2019-01-25T02:10:21.476Z,38.33
2019-01-25T02:12:50.236Z,41.98
2019-01-25T02:15:19.667Z,38.98
2019-01-25T02:17:49.107Z,37.23
2019-01-25T02:20:22.987Z,41.00
2019-01-25T02:22:52.091Z,37.50
2019-01-25T02:25:21.022Z,40.25
2019-01-25T02:27:49.766Z,37.20
2019-01-25T02:30:20.669Z,37.15
2019-01-25T02:32:49.490Z,40.10
2019-01-25T02:35:18.411Z,39.15
2019-01-25T02:37:47.259Z,41.73
2019-01-25T02:40:18.205Z,37.28
2019-01-25T02:42:47.285Z,37.90
2019-01-25T02:45:16.286Z,39.20
2019-01-25T02:47:45.263Z,39.42
2019-01-25T02:50:15.814Z,38.38
2019-01-25T02:52:44.966Z,38.30
2019-01-25T02:55:14.050Z,35.85
2019-01-25T02:57:42.805Z,40.45
2019-01-25T03:00:22.566Z,37.03
2019-01-25T03:02:51.640Z,39.53
2019-01-25T03:05:21.158Z,38.88
2019-01-25T03:07:50.271Z,40.08
2019-01-25T03:10:19.870Z,44.55
2019-01-25T03:12:48.810Z,42.95
2019-01-25T03:15:19.460Z,40.65
2019-01-25T03:17:48.585Z,39.23
2019-01-25T03:20:18.354Z,37.55
2019-01-25T03:22:47.262Z,39.55
2019-01-25T03:25:24.217Z,38.98
2019-01-25T03:27:53.114Z,38.00
2019-01-25T03:30:22.728Z,38.88
2019-01-25T03:32:51.569Z,40.00
2019-01-25T03:35:21.748Z,37.98
2019-01-25T03:37:50.667Z,37.48
2019-01-25T03:40:21.173Z,37.40
2019-01-25T03:42:50.097Z,40.40
2019-01-25T03:45:19.331Z,38.60
2019-01-25T03:47:48.298Z,37.63
2019-01-25T03:50:19.953Z,39.35
2019-01-25T03:52:49.034Z,38.07
2019-01-25T03:55:18.510Z,36.33
2019-01-25T03:57:47.385Z,40.08
2019-01-25T04:00:18.190Z,39.13
2019-01-25T04:02:47.012Z,37.20
2019-01-25T04:05:16.039Z,37.30
2019-01-25T04:07:45.054Z,38.50
2019-01-25T04:10:16.149Z,42.48
2019-01-25T04:12:45.071Z,38.83
2019-01-25T04:15:16.765Z,39.20
2019-01-25T04:17:45.600Z,38.55
2019-01-25T04:20:15.372Z,40.70
2019-01-25T04:22:44.194Z,36.50
2019-01-25T04:25:15.492Z,38.05
2019-01-25T04:27:44.318Z,38.42
2019-01-25T04:30:16.412Z,38.40
2019-01-25T04:32:45.239Z,39.57
2019-01-25T04:35:14.191Z,41.30
2019-01-25T04:37:43.022Z,42.40
2019-01-25T04:40:13.587Z,37.53
2019-01-25T04:42:42.354Z,39.40
2019-01-25T04:45:12.746Z,39.50
2019-01-25T04:47:41.828Z,37.93
2019-01-25T04:50:13.344Z,39.85
2019-01-25T04:52:42.194Z,36.30
2019-01-25T04:55:18.018Z,37.88
2019-01-25T04:57:46.857Z,40.60
2019-01-25T05:00:16.284Z,38.55
2019-01-25T05:02:53.109Z,41.37
2019-01-25T05:05:21.997Z,41.00
2019-01-25T05:07:51.240Z,39.45
2019-01-25T05:10:20.253Z,38.65
2019-01-25T05:12:53.271Z,40.63
2019-01-25T05:15:22.147Z,42.20
2019-01-25T05:17:54.509Z,39.48
2019-01-25T05:20:23.754Z,39.30
2019-01-25T05:22:57.154Z,39.67
2019-01-25T05:25:26.733Z,40.85
2019-01-25T05:27:55.573Z,40.80
2019-01-25T05:30:25.020Z,41.80
2019-01-25T05:32:53.877Z,41.02
2019-01-25T05:35:22.633Z,39.08
2019-01-25T05:37:51.482Z,39.10
2019-01-25T05:40:22.728Z,37.88
2019-01-25T05:42:51.656Z,39.25
2019-01-25T05:45:20.670Z,38.30
2019-01-25T05:47:49.604Z,40.20
2019-01-25T05:50:18.709Z,38.98
2019-01-25T05:52:47.635Z,40.38
2019-01-25T05:55:18.264Z,42.05
2019-01-25T05:57:47.111Z,44.13
2019-01-25T06:00:19.750Z,40.48
2019-01-25T06:02:48.593Z,42.00
2019-01-25T06:05:18.227Z,41.28
2019-01-25T06:07:47.114Z,39.95
2019-01-25T06:10:15.934Z,39.48
2019-01-25T06:12:46.383Z,38.15
2019-01-25T06:15:15.291Z,39.40
2019-01-25T06:17:44.064Z,40.10
2019-01-25T06:20:13.171Z,38.00
2019-01-25T06:22:44.922Z,41.63
2019-01-25T06:25:13.751Z,42.35
2019-01-25T06:27:42.671Z,37.85
2019-01-25T06:30:13.389Z,40.25
2019-01-25T06:32:42.221Z,40.95
2019-01-25T06:35:11.120Z,38.60
2019-01-25T06:37:40.827Z,37.60
2019-01-25T06:40:09.777Z,39.95
2019-01-25T06:42:38.641Z,41.00
2019-01-25T06:45:07.670Z,40.88
2019-01-25T06:47:36.570Z,37.90
2019-01-25T06:50:05.504Z,38.60
2019-01-25T06:52:34.509Z,36.15
2019-01-25T06:55:03.353Z,38.92
2019-01-25T06:57:39.257Z,37.20
2019-01-25T07:00:10.313Z,38.45
2019-01-25T07:02:40.833Z,37.60
2019-01-25T07:05:09.894Z,37.53
2019-01-25T07:07:40.094Z,36.37
2019-01-25T07:10:13.336Z,38.20
2019-01-25T07:12:42.260Z,41.58
2019-01-25T07:15:12.181Z,38.63
2019-01-25T07:17:41.191Z,35.85
2019-01-25T07:20:11.701Z,39.18
2019-01-25T07:22:40.470Z,37.13
2019-01-25T07:25:09.875Z,38.33
2019-01-25T07:27:38.868Z,38.63
2019-01-25T07:30:09.148Z,45.17
2019-01-25T07:32:37.950Z,40.70
2019-01-25T07:35:07.535Z,41.18
2019-01-25T07:37:36.383Z,40.60
2019-01-25T07:40:05.697Z,37.93
2019-01-25T07:42:34.697Z,40.20
2019-01-25T07:45:03.894Z,42.27
2019-01-25T07:47:33.005Z,40.45
2019-01-25T07:50:01.896Z,40.63
2019-01-25T07:52:30.675Z,40.95
2019-01-25T07:54:59.513Z,41.10
2019-01-25T07:57:28.287Z,38.90
2019-01-25T07:59:57.082Z,44.23
2019-01-25T08:02:25.853Z,37.93
2019-01-25T08:04:54.648Z,36.88
2019-01-25T08:07:23.421Z,41.88
2019-01-25T08:09:52.198Z,39.78
2019-01-25T08:12:21.088Z,37.90
2019-01-25T08:14:49.853Z,39.90
2019-01-25T08:17:18.600Z,38.88
2019-01-25T08:19:47.358Z,40.30
2019-01-25T08:22:16.376Z,36.60
2019-01-25T08:24:45.320Z,40.63
2019-01-25T08:27:14.152Z,43.10
2019-01-25T08:29:43.075Z,38.23
2019-01-25T08:32:11.926Z,42.38
2019-01-25T08:34:41.295Z,45.73
2019-01-25T08:37:10.047Z,40.52
2019-01-25T08:39:39.231Z,43.70
2019-01-25T08:42:15.269Z,45.93
2019-01-25T08:44:38.458Z,43.23
2019-01-25T08:47:07.207Z,44.38
2019-01-25T08:49:35.998Z,45.50
2019-01-25T08:52:04.941Z,46.35
2019-01-25T08:54:33.991Z,46.23
2019-01-25T08:57:02.750Z,44.30
2019-01-25T08:59:31.666Z,44.33
2019-01-25T09:02:00.771Z,47.58
2019-01-25T09:04:29.550Z,45.83
2019-01-25T09:06:58.324Z,47.15
2019-01-25T09:09:27.355Z,46.08
2019-01-25T09:11:56.348Z,46.05
2019-01-25T09:14:25.137Z,46.77
2019-01-25T09:16:53.892Z,45.60
2019-01-25T09:19:23.356Z,45.30
2019-01-25T09:21:52.158Z,44.83
2019-01-25T09:24:20.923Z,45.30
2019-01-25T09:26:49.710Z,42.85
2019-01-25T09:29:18.537Z,42.30
2019-01-25T09:31:47.303Z,41.63
2019-01-25T09:34:16.080Z,41.83
2019-01-25T09:36:44.876Z,40.80
2019-01-25T09:39:13.766Z,39.98
2019-01-25T09:41:42.546Z,40.25
2019-01-25T09:44:11.390Z,40.17
2019-01-25T09:46:40.249Z,38.23
2019-01-25T09:49:09.085Z,35.48
2019-01-25T09:51:37.986Z,33.73
2019-01-25T09:54:06.815Z,31.48
2019-01-25T09:56:35.618Z,31.17
2019-01-25T09:59:04.690Z,30.50
2019-01-25T10:01:33.524Z,29.23
2019-01-25T10:04:02.614Z,34.03
2019-01-25T10:06:31.366Z,33.55
2019-01-25T10:09:00.130Z,28.92
2019-01-25T10:11:29.224Z,29.25
2019-01-25T10:13:58.234Z,29.35
2019-01-25T10:16:27.015Z,30.97
2019-01-25T10:18:55.778Z,28.87
2019-01-25T10:21:24.628Z,31.97
2019-01-25T10:23:53.397Z,32.63
2019-01-25T10:26:22.173Z,35.95
2019-01-25T10:28:50.972Z,34.45
2019-01-25T10:31:19.729Z,33.60
2019-01-25T10:33:48.571Z,35.17
2019-01-25T10:36:17.670Z,38.58
2019-01-25T10:38:46.496Z,33.28
2019-01-25T10:41:15.329Z,34.67
2019-01-25T10:43:44.117Z,34.90
2019-01-25T10:46:12.897Z,36.95
2019-01-25T10:48:41.686Z,35.70
2019-01-25T10:51:10.574Z,35.15
2019-01-25T10:53:39.644Z,33.25
2019-01-25T10:56:08.431Z,38.70
2019-01-25T10:58:37.460Z,34.18
2019-01-25T11:01:06.635Z,36.13
2019-01-25T11:03:35.458Z,37.05
2019-01-25T11:06:04.707Z,35.40
2019-01-25T11:08:33.499Z,33.67
2019-01-25T11:11:02.520Z,34.70
2019-01-25T11:13:31.388Z,34.30
2019-01-25T11:16:00.118Z,32.65
2019-01-25T11:18:28.907Z,32.50
2019-01-25T11:20:57.907Z,30.02
2019-01-25T11:23:26.704Z,30.32
2019-01-25T11:25:55.544Z,30.02
2019-01-25T11:28:24.562Z,31.90
2019-01-25T11:30:53.305Z,33.28
2019-01-25T11:33:22.072Z,30.70
2019-01-25T11:35:50.810Z,34.63
2019-01-25T11:38:19.642Z,36.95
2019-01-25T11:40:48.727Z,39.13
2019-01-25T11:43:17.487Z,36.63
2019-01-25T11:45:46.483Z,33.60
2019-01-25T11:48:15.520Z,35.00
2019-01-25T11:50:47.242Z,37.90
2019-01-25T11:53:16.252Z,38.88
2019-01-25T11:55:45.018Z,35.40
2019-01-25T11:58:13.782Z,33.15
2019-01-25T12:00:45.390Z,34.63
2019-01-25T12:03:14.258Z,36.30
2019-01-25T12:05:43.070Z,34.03
2019-01-25T12:08:12.015Z,35.10
2019-01-25T12:10:42.576Z,31.95
2019-01-25T12:13:16.082Z,33.35
2019-01-25T12:15:42.013Z,34.43
2019-01-25T12:18:10.811Z,33.18
2019-01-25T12:20:39.586Z,34.18
2019-01-25T12:23:08.431Z,32.58
2019-01-25T12:25:37.268Z,32.15
2019-01-25T12:28:06.015Z,31.50
2019-01-25T12:30:38.158Z,29.70
2019-01-25T12:33:08.217Z,35.58
2019-01-25T12:35:39.273Z,34.00
2019-01-25T12:38:08.410Z,35.80
2019-01-25T12:40:41.881Z,33.65
2019-01-25T12:43:08.134Z,34.20
2019-01-25T12:45:36.902Z,33.42
2019-01-25T12:48:06.071Z,32.88
2019-01-25T12:50:53.873Z,32.05
2019-01-25T12:53:34.398Z,30.52
2019-01-25T12:56:15.329Z,34.30
2019-01-25T12:58:56.196Z,28.00
2019-01-25T13:01:36.805Z,31.30
2019-01-25T13:04:17.532Z,30.85
2019-01-25T13:06:58.627Z,28.23
2019-01-25T13:09:39.211Z,29.90
2019-01-25T13:12:24.999Z,28.90
2019-01-25T13:15:05.180Z,25.15
2019-01-25T13:17:46.166Z,29.52
2019-01-25T13:20:26.894Z,30.10
2019-01-25T13:23:07.585Z,27.37
2019-01-25T13:25:48.240Z,26.48
2019-01-25T13:28:29.108Z,28.27
2019-01-25T13:31:10.678Z,30.48
2019-01-25T13:33:51.313Z,25.37
2019-01-25T13:36:31.922Z,27.60
2019-01-25T13:39:12.669Z,28.57
2019-01-25T13:41:53.514Z,26.97
2019-01-25T13:44:34.482Z,25.85
2019-01-25T13:47:14.940Z,23.77
2019-01-25T13:49:55.746Z,25.00
2019-01-25T13:52:36.190Z,23.77
2019-01-25T13:55:17.058Z,24.18
2019-01-25T13:57:57.619Z,23.80
2019-01-25T14:00:38.505Z,25.88
2019-01-25T14:03:19.455Z,24.23
2019-01-25T14:06:00.744Z,23.47
2019-01-25T14:08:41.298Z,24.65
2019-01-25T14:11:21.996Z,22.15
2019-01-25T14:14:02.791Z,23.70
2019-01-25T14:16:43.679Z,22.20
2019-01-25T14:19:24.307Z,20.97
2019-01-25T14:22:05.296Z,22.20
2019-01-25T14:24:45.703Z,25.20
2019-01-25T14:27:26.517Z,20.60
2019-01-25T14:30:07.383Z,23.75
2019-01-25T14:32:48.749Z,25.57
2019-01-25T14:35:29.966Z,23.47
2019-01-25T14:38:10.516Z,23.90
2019-01-25T14:40:51.108Z,22.70
2019-01-25T14:43:31.600Z,22.60
2019-01-25T14:46:12.222Z,22.30
2019-01-25T14:48:53.370Z,22.82
2019-01-25T14:51:33.859Z,23.22
2019-01-25T14:54:14.550Z,23.60
2019-01-25T14:56:55.121Z,24.10
2019-01-25T14:59:35.530Z,22.82
2019-01-25T15:02:16.679Z,26.12
2019-01-25T15:04:57.121Z,25.10
2019-01-25T15:07:37.896Z,25.52
2019-01-25T15:10:18.467Z,24.87
2019-01-25T15:12:59.128Z,25.30
2019-01-25T15:15:39.803Z,22.10
2019-01-25T15:18:20.462Z,24.00
2019-01-25T15:21:01.167Z,23.67
2019-01-25T15:23:41.906Z,25.10
2019-01-25T15:26:22.794Z,24.18
2019-01-25T15:29:03.592Z,26.65
2019-01-25T15:31:43.970Z,23.65
2019-01-25T15:34:24.392Z,23.27
2019-01-25T15:37:05.382Z,24.85
2019-01-25T15:39:46.233Z,25.57
2019-01-25T15:42:26.990Z,24.10
2019-01-25T15:45:07.852Z,24.00
2019-01-25T15:47:48.420Z,23.90
2019-01-25T15:50:29.050Z,20.70
2019-01-25T15:53:09.751Z,24.60
2019-01-25T15:55:50.476Z,24.00
2019-01-25T15:58:30.933Z,22.07
2019-01-25T16:01:11.714Z,24.37
2019-01-25T16:03:52.049Z,22.70
2019-01-25T16:06:32.466Z,23.10
2019-01-25T16:09:14.916Z,23.60
2019-01-25T16:11:56.087Z,21.85
2019-01-25T16:14:36.794Z,23.75
2019-01-25T16:17:17.227Z,21.42
2019-01-25T16:19:58.231Z,22.20
2019-01-25T16:22:38.866Z,19.92
2019-01-25T16:25:19.425Z,22.75
2019-01-25T16:27:59.975Z,22.02
2019-01-25T16:30:40.766Z,21.05
2019-01-25T16:33:21.828Z,21.55
2019-01-25T16:36:02.241Z,24.12
2019-01-25T16:38:43.265Z,21.65
2019-01-25T16:41:23.982Z,21.97
2019-01-25T16:44:04.340Z,22.40
2019-01-25T16:46:45.030Z,21.60
2019-01-25T16:49:14.326Z,22.90
2019-01-25T16:52:02.309Z,21.42
2019-01-25T16:54:50.603Z,22.30
2019-01-25T17:00:33.502Z,23.05
2019-01-25T17:03:21.763Z,19.77
2019-01-25T17:06:09.822Z,21.70
2019-01-25T17:08:50.686Z,20.00
2019-01-25T17:11:31.367Z,19.92
2019-01-25T17:14:11.691Z,20.80
2019-01-25T17:16:52.464Z,20.97
2019-01-25T17:19:33.196Z,21.50
2019-01-25T17:22:13.619Z,21.02
2019-01-25T17:24:54.627Z,22.40
2019-01-25T17:27:36.179Z,21.23
2019-01-25T17:30:16.980Z,20.30
2019-01-25T17:32:57.779Z,23.32
2019-01-25T17:35:38.342Z,20.70
2019-01-25T17:38:19.302Z,21.00
2019-01-25T17:40:59.899Z,22.82
2019-01-25T17:43:40.956Z,20.92
2019-01-25T17:46:21.519Z,21.37
2019-01-25T17:49:02.229Z,20.17
2019-01-25T17:51:43.083Z,18.15
2019-01-25T17:54:23.967Z,18.82
2019-01-25T17:57:04.555Z,21.02
2019-01-25T17:59:45.595Z,18.77
2019-01-25T18:02:26.837Z,20.50
2019-01-25T18:05:07.554Z,19.70
2019-01-25T18:07:48.391Z,20.82
2019-01-25T18:10:29.446Z,18.33
2019-01-25T18:13:10.920Z,20.70
2019-01-25T18:15:51.682Z,18.23
2019-01-25T18:18:32.291Z,18.90
2019-01-25T18:21:13.260Z,18.65
2019-01-25T18:23:54.113Z,20.92
2019-01-25T18:26:35.293Z,20.63
2019-01-25T18:29:16.342Z,19.42
2019-01-25T18:31:56.967Z,19.30
2019-01-25T18:34:37.905Z,20.93
2019-01-25T18:37:18.867Z,20.57
2019-01-25T18:39:59.471Z,17.70
2019-01-25T18:42:40.332Z,18.13
2019-01-25T18:45:20.838Z,19.40
2019-01-25T18:48:02.014Z,18.00
2019-01-25T18:50:42.896Z,18.60
2019-01-25T18:53:23.988Z,18.05
2019-01-25T18:56:05.099Z,16.80
2019-01-25T18:58:46.070Z,17.90
2019-01-25T19:01:27.187Z,16.50
2019-01-25T19:04:07.487Z,16.60
2019-01-25T19:06:47.890Z,18.93
2019-01-25T19:09:28.333Z,18.70
2019-01-25T19:12:09.067Z,18.00
2019-01-25T19:14:49.872Z,19.73
2019-01-25T19:17:30.593Z,19.33
2019-01-25T19:20:11.855Z,19.75
2019-01-25T19:22:52.619Z,19.50
2019-01-25T19:25:33.711Z,20.27
2019-01-25T19:28:14.836Z,18.83
2019-01-25T19:30:56.055Z,19.27
2019-01-25T19:33:37.119Z,19.17
2019-01-25T19:36:18.094Z,18.47
2019-01-25T19:38:58.407Z,19.45
2019-01-25T19:41:40.698Z,18.37
2019-01-25T19:44:21.694Z,18.73
2019-01-25T19:47:02.059Z,18.07
2019-01-25T19:49:42.773Z,20.60
2019-01-25T19:52:23.399Z,18.03
2019-01-25T19:54:52.257Z,20.50
2019-01-25T19:57:40.224Z,19.80
2019-01-25T20:00:29.526Z,18.10
2019-01-25T20:03:18.132Z,20.13
2019-01-25T20:06:06.189Z,20.53
2019-01-25T20:08:47.138Z,21.00
2019-01-25T20:14:10.191Z,20.40
2019-01-25T20:16:50.911Z,21.90
2019-01-25T20:19:32.026Z,24.63
2019-01-25T20:22:12.799Z,23.90
2019-01-25T20:24:53.586Z,25.13
2019-01-25T20:27:34.206Z,25.13
2019-01-25T20:30:14.942Z,23.98
2019-01-25T20:32:55.639Z,24.25
2019-01-25T20:35:36.850Z,20.87
2019-01-25T20:38:17.270Z,24.47
2019-01-25T20:40:58.256Z,25.30
2019-01-25T20:43:38.691Z,22.40
2019-01-25T20:46:19.257Z,24.17
2019-01-25T20:48:59.950Z,20.33
2019-01-25T20:51:40.865Z,22.07
2019-01-25T20:54:21.567Z,21.70
2019-01-25T20:57:01.882Z,21.97
2019-01-25T20:59:42.570Z,19.87
2019-01-25T21:02:23.089Z,19.63
2019-01-25T21:05:03.923Z,19.00
2019-01-25T21:07:44.749Z,17.07
2019-01-25T21:10:25.964Z,18.43
2019-01-25T21:13:06.750Z,16.50
2019-01-25T21:15:47.550Z,16.97
2019-01-25T21:18:27.973Z,15.90
2019-01-25T21:21:08.829Z,15.40
2019-01-25T21:23:49.203Z,16.50
2019-01-25T21:26:29.854Z,16.23
2019-01-25T21:29:10.560Z,15.55
2019-01-25T21:31:51.349Z,15.40
2019-01-25T21:34:31.893Z,15.00
2019-01-25T21:37:12.398Z,14.50
2019-01-25T21:39:53.262Z,13.13
2019-01-25T21:42:34.490Z,14.07
2019-01-25T21:45:15.181Z,12.13
2019-01-25T21:47:55.884Z,12.13
2019-01-25T21:50:36.770Z,14.60
2019-01-25T21:53:17.301Z,13.70
2019-01-25T21:55:58.077Z,13.47
2019-01-25T21:58:38.677Z,13.27
2019-01-25T22:01:19.346Z,14.10
2019-01-25T22:04:00.082Z,13.97
2019-01-25T22:06:42.545Z,15.60
2019-01-25T22:09:23.442Z,13.33
2019-01-25T22:12:11.560Z,15.10
2019-01-25T22:14:59.541Z,17.00
2019-01-25T22:17:47.607Z,16.50
2019-01-25T22:20:35.569Z,14.83
2019-01-25T22:23:23.642Z,17.15
2019-01-25T22:26:11.631Z,15.17
2019-01-25T22:28:59.616Z,16.50
2019-01-25T22:31:47.922Z,13.20
2019-01-25T22:34:35.946Z,13.27
2019-01-25T22:37:23.909Z,13.17
2019-01-25T22:40:32.591Z,11.73
2019-01-25T22:43:20.588Z,11.63
2019-01-25T22:46:08.996Z,11.00
2019-01-25T22:48:57.244Z,11.00
2019-01-25T22:51:45.312Z,12.20
2019-01-25T22:54:33.331Z,10.80
2019-01-25T22:57:21.670Z,9.20
2019-01-25T23:03:46.620Z,10.70
2019-01-25T23:06:36.325Z,10.20
2019-01-25T23:09:17.246Z,10.80
2019-01-25T23:11:58.219Z,10.37
2019-01-25T23:14:39.259Z,10.17
2019-01-25T23:17:20.018Z,9.70
2019-01-25T23:20:00.730Z,9.00
2019-01-25T23:22:41.554Z,8.30
2019-01-25T23:25:22.334Z,8.03
2019-01-25T23:28:03.297Z,9.10
2019-01-25T23:30:44.066Z,8.63
2019-01-25T23:33:24.878Z,8.57
2019-01-25T23:36:05.766Z,7.27
2019-01-25T23:38:46.084Z,8.10
2019-01-25T23:41:26.938Z,7.10
2019-01-25T23:44:07.799Z,7.00
2019-01-25T23:46:48.794Z,6.60
2019-01-25T23:49:29.499Z,8.00
2019-01-25T23:52:10.521Z,7.10
2019-01-25T23:54:51.082Z,8.00
2019-01-25T23:57:31.697Z,7.43
